Time;durP1;ratioP1;P1;durP2;ratioP2;P2;SDS_P1;SDS_P2;PMS_P1;PMS_P2;Temp;Humidity;BMP_temperature;BMP_pressure;BME280_temperature;BME280_humidity;BME280_pressure;Samples;Min_cycle;Max_cycle;Signal;HPM_P1;HPM_P2
2022/01/21 00:01:21;;;;;;;10.67;2.63;;;2.00;99.90;;;;;;5096538;28;20049;-82
2022/01/21 00:03:47;;;;;;;7.90;2.00;;;2.00;99.90;;;;;;5096964;28;20026;-82
2022/01/21 00:06:13;;;;;;;8.13;1.83;;;2.00;99.90;;;;;;5096650;28;20024;-82
2022/01/21 00:08:41;;;;;;;9.67;2.50;;;2.00;99.90;;;;;;5096208;28;20040;-82
2022/01/21 00:11:08;;;;;;;7.57;2.13;;;2.00;99.90;;;;;;5088852;28;20031;-82
2022/01/21 00:13:34;;;;;;;7.97;1.93;;;2.10;99.90;;;;;;5096326;28;20028;-82
2022/01/21 00:16:09;;;;;;;7.87;1.90;;;2.10;99.90;;;;;;5114463;28;20019;-82
2022/01/21 00:18:37;;;;;;;6.47;2.20;;;2.10;99.90;;;;;;5095586;28;20031;-82
2022/01/21 00:32:02;;;;;;;8.17;2.83;;;2.00;99.90;;;;;;5114256;28;20097;-82
2022/01/21 00:34:28;;;;;;;4.77;2.20;;;1.90;99.90;;;;;;5095469;28;20023;-82
2022/01/21 00:36:54;;;;;;;5.93;2.20;;;1.90;99.90;;;;;;5095979;28;20366;-82
2022/01/21 00:39:23;;;;;;;5.30;2.30;;;1.90;99.90;;;;;;5113127;28;20376;-80
2022/01/21 00:42:06;;;;;;;11.13;2.93;;;1.80;99.90;;;;;;5088715;28;20057;-81
2022/01/21 00:44:32;;;;;;;10.27;2.50;;;1.90;99.90;;;;;;5095705;28;20028;-81
2022/01/21 00:46:58;;;;;;;8.93;2.40;;;1.90;99.90;;;;;;5095969;28;20076;-81
2022/01/21 00:49:24;;;;;;;12.13;2.50;;;1.80;99.90;;;;;;5095105;28;20028;-80
2022/01/21 00:51:50;;;;;;;10.73;2.43;;;1.80;99.90;;;;;;5095613;28;20028;-81
2022/01/21 00:54:16;;;;;;;9.10;2.27;;;1.80;99.90;;;;;;5114142;28;20035;-81
2022/01/21 00:56:42;;;;;;;6.93;1.93;;;1.80;99.90;;;;;;5113285;28;20449;-81
2022/01/21 00:59:07;;;;;;;15.67;2.87;;;1.80;99.90;;;;;;5094483;28;20043;-81
2022/01/21 01:01:33;;;;;;;9.53;2.00;;;1.90;99.90;;;;;;5095252;28;20464;-81
2022/01/21 01:03:59;;;;;;;6.10;2.30;;;1.90;99.90;;;;;;5113764;28;20054;-82
2022/01/21 01:06:25;;;;;;;9.20;2.63;;;1.90;99.90;;;;;;5113135;28;20476;-81
2022/01/21 01:08:52;;;;;;;7.40;2.27;;;1.90;99.90;;;;;;5113748;28;20039;-82
2022/01/21 01:20:13;;;;;;;6.00;1.80;;;2.00;99.90;;;;;;5112745;28;20400;-81
2022/01/21 01:22:25;;;;;;;6.13;1.90;;;2.00;99.90;;;;;;5107494;28;20459;-82
2022/01/21 01:27:37;;;;;;;3.83;1.70;;;2.00;99.90;;;;;;5093135;28;20473;-82
2022/01/21 01:30:04;;;;;;;11.03;1.93;;;2.00;99.90;;;;;;5092510;28;20020;-81
2022/01/21 01:32:30;;;;;;;6.90;2.73;;;1.90;99.90;;;;;;5091483;28;20032;-81
2022/01/21 01:34:56;;;;;;;6.90;1.93;;;1.90;99.90;;;;;;5091970;28;20028;-82
2022/01/21 01:40:16;;;;;;;9.83;2.40;;;1.80;99.90;;;;;;5092113;28;20028;-82
2022/01/21 01:50:47;;;;;;;8.83;2.53;;;1.80;99.90;;;;;;5076919;28;20469;-81
2022/01/21 01:53:13;;;;;;;6.20;2.00;;;1.80;99.90;;;;;;5092972;28;20069;-81
2022/01/21 01:55:39;;;;;;;12.40;2.70;;;1.80;99.90;;;;;;5091530;28;20024;-81
2022/01/21 01:58:05;;;;;;;7.80;2.30;;;1.80;99.90;;;;;;5091750;28;20024;-81
2022/01/21 02:00:32;;;;;;;6.50;2.47;;;1.80;99.90;;;;;;5092071;28;20035;-81
2022/01/21 02:03:28;;;;;;;12.97;2.97;;;1.80;99.90;;;;;;5093007;28;20016;-80
2022/01/21 02:05:53;;;;;;;5.77;2.33;;;1.80;99.90;;;;;;5078815;28;20040;-80
2022/01/21 02:08:19;;;;;;;5.27;2.87;;;1.80;99.90;;;;;;5092840;28;20087;-81
2022/01/21 02:10:44;;;;;;;8.33;2.60;;;1.70;99.90;;;;;;5093979;28;20024;-81
2022/01/21 02:13:20;;;;;;;6.77;2.53;;;1.60;99.90;;;;;;5095637;28;20027;-80
2022/01/21 02:16:04;;;;;;;8.83;2.60;;;1.60;99.90;;;;;;5095106;28;20024;-81
2022/01/21 02:23:56;;;;;;;6.43;2.40;;;1.60;99.90;;;;;;5098234;28;20036;-80
2022/01/21 02:26:23;;;;;;;11.90;2.93;;;1.70;99.90;;;;;;5116942;28;20020;-80
2022/01/21 02:28:49;;;;;;;9.93;2.60;;;1.60;99.90;;;;;;5098823;28;20035;-80
2022/01/21 02:31:15;;;;;;;6.70;2.40;;;1.60;99.90;;;;;;5098637;28;20023;-81
2022/01/21 02:33:40;;;;;;;7.57;2.47;;;1.50;99.90;;;;;;5097734;28;20465;-81
2022/01/21 02:36:06;;;;;;;9.43;2.73;;;1.50;99.90;;;;;;5116346;28;20028;-81
2022/01/21 02:38:32;;;;;;;7.97;2.40;;;1.50;99.90;;;;;;5097853;28;20105;-81
2022/01/21 02:40:58;;;;;;;5.00;2.33;;;1.40;99.90;;;;;;5098278;28;20020;-81
2022/01/21 02:43:24;;;;;;;7.57;2.53;;;1.50;99.90;;;;;;5116531;28;20089;-82
2022/01/21 02:45:49;;;;;;;8.13;2.30;;;1.50;99.90;;;;;;5116005;28;20444;-80
2022/01/21 02:48:16;;;;;;;6.13;2.50;;;1.50;99.90;;;;;;5098404;28;20387;-80
2022/01/21 02:50:41;;;;;;;6.97;2.40;;;1.40;99.90;;;;;;5115938;28;20527;-82
2022/01/21 02:53:39;;;;;;;11.00;3.17;;;1.40;99.90;;;;;;5116279;28;20054;-81
2022/01/21 02:55:53;;;;;;;5.23;2.10;;;1.50;99.90;;;;;;5115097;28;20579;-81
2022/01/21 02:58:19;;;;;;;13.43;2.90;;;1.50;99.90;;;;;;5097836;28;20047;-81
2022/01/21 03:00:45;;;;;;;9.10;2.63;;;1.40;99.90;;;;;;5097081;28;20028;-82
2022/01/21 03:03:11;;;;;;;7.83;2.97;;;1.30;99.90;;;;;;5116408;28;20019;-83
2022/01/21 03:05:38;;;;;;;7.80;2.63;;;1.30;99.90;;;;;;5097682;28;20585;-82
2022/01/21 03:08:06;;;;;;;8.43;2.60;;;1.30;99.90;;;;;;5098321;28;20040;-83
2022/01/21 03:10:32;;;;;;;5.33;2.20;;;1.30;99.90;;;;;;5096203;28;20024;-81
2022/01/21 03:12:57;;;;;;;9.67;2.73;;;1.30;99.90;;;;;;5115953;28;20026;-82
2022/01/21 03:15:23;;;;;;;6.67;2.23;;;1.30;99.90;;;;;;5115674;28;20031;-84
2022/01/21 03:17:49;;;;;;;11.70;2.73;;;1.20;99.90;;;;;;5096973;28;20039;-84
2022/01/21 03:20:14;;;;;;;8.07;2.67;;;1.10;99.90;;;;;;5097115;28;20031;-81
2022/01/21 03:22:40;;;;;;;8.47;2.90;;;1.10;99.90;;;;;;5079749;28;20106;-82
2022/01/21 03:25:07;;;;;;;8.90;2.30;;;1.10;99.90;;;;;;5115633;28;20052;-80
2022/01/21 03:27:33;;;;;;;9.30;2.37;;;1.10;99.90;;;;;;5097769;28;20031;-80
2022/01/21 03:29:58;;;;;;;9.07;2.53;;;1.20;99.90;;;;;;5115503;28;20027;-81
2022/01/21 03:32:25;;;;;;;6.77;2.57;;;1.10;99.90;;;;;;5097479;28;20030;-82
2022/01/21 03:34:51;;;;;;;4.93;2.33;;;1.20;99.90;;;;;;5096940;28;20057;-82
2022/01/21 03:37:17;;;;;;;9.57;2.60;;;1.20;99.90;;;;;;5096913;28;20035;-82
2022/01/21 03:39:42;;;;;;;9.90;2.30;;;1.20;99.90;;;;;;5113482;28;20111;-82
2022/01/21 03:42:08;;;;;;;8.10;2.53;;;1.20;99.90;;;;;;5097235;28;20035;-82
2022/01/21 03:44:33;;;;;;;8.03;2.23;;;1.20;99.90;;;;;;5096843;28;20448;-81
2022/01/21 03:46:59;;;;;;;9.13;2.70;;;1.30;99.90;;;;;;5097267;28;20031;-81
2022/01/21 03:49:27;;;;;;;6.57;2.30;;;1.20;99.90;;;;;;5115001;28;20502;-81
2022/01/21 03:51:53;;;;;;;7.13;2.57;;;1.20;99.90;;;;;;5096745;28;20046;-83
2022/01/21 03:54:18;;;;;;;8.83;2.90;;;1.20;99.90;;;;;;5097247;28;20020;-83
2022/01/21 03:56:44;;;;;;;5.90;2.67;;;1.20;99.90;;;;;;5114768;28;20420;-81
2022/01/21 03:59:10;;;;;;;7.43;2.80;;;1.20;99.90;;;;;;5114389;28;20369;-81
2022/01/21 04:01:36;;;;;;;9.73;2.50;;;1.20;99.90;;;;;;5095347;28;20092;-81
2022/01/21 04:04:02;;;;;;;9.70;3.00;;;1.20;99.90;;;;;;5096336;28;20109;-81
2022/01/21 04:06:28;;;;;;;8.03;2.57;;;1.10;99.90;;;;;;5108403;27;20027;-79
2022/01/21 04:08:53;;;;;;;8.03;2.43;;;1.10;99.90;;;;;;5111471;28;20027;-81
2022/01/21 04:11:19;;;;;;;8.77;2.33;;;1.10;99.90;;;;;;5096668;28;20024;-82
2022/01/21 04:13:46;;;;;;;3.77;2.20;;;1.10;99.90;;;;;;5096081;28;20034;-81
2022/01/21 04:16:11;;;;;;;4.77;1.90;;;1.10;99.90;;;;;;5101150;27;20486;-81
2022/01/21 04:18:37;;;;;;;5.80;2.00;;;1.10;99.90;;;;;;5095729;28;20122;-81
2022/01/21 04:21:03;;;;;;;5.50;2.60;;;1.10;99.90;;;;;;5114153;28;20471;-81
2022/01/21 04:23:28;;;;;;;13.20;2.77;;;1.20;99.90;;;;;;5096300;28;20019;-80
2022/01/21 04:25:54;;;;;;;9.23;2.33;;;1.10;99.90;;;;;;5093065;28;20459;-81
2022/01/21 04:28:20;;;;;;;6.10;2.83;;;1.20;99.90;;;;;;5093192;28;20028;-82
2022/01/21 04:30:46;;;;;;;8.97;2.67;;;1.10;99.90;;;;;;5092481;28;20028;-81
2022/01/21 04:33:12;;;;;;;10.63;2.93;;;1.10;99.90;;;;;;5093943;28;20043;-81
2022/01/21 04:35:39;;;;;;;8.80;2.63;;;1.00;99.90;;;;;;5091976;28;20028;-81
2022/01/21 04:38:08;;;;;;;5.57;2.37;;;1.00;99.90;;;;;;5092698;28;20465;-81
2022/01/21 04:40:40;;;;;;;9.20;2.63;;;1.00;99.90;;;;;;5085154;28;20021;-81
2022/01/21 04:48:35;;;;;;;11.90;2.93;;;1.00;99.90;;;;;;5093357;28;20039;-81
2022/01/21 04:51:13;;;;;;;8.90;2.63;;;0.90;99.90;;;;;;5092939;28;20078;-81
2022/01/21 04:53:41;;;;;;;8.73;3.03;;;0.90;99.90;;;;;;5093311;28;20020;-81
2022/01/21 04:56:07;;;;;;;8.40;2.73;;;0.90;99.90;;;;;;5092800;28;20051;-82
2022/01/21 04:58:33;;;;;;;12.93;3.30;;;0.90;99.90;;;;;;5092815;28;20058;-81
2022/01/21 05:01:03;;;;;;;7.67;2.60;;;0.90;99.90;;;;;;5092054;28;20107;-82
2022/01/21 05:03:28;;;;;;;13.83;3.27;;;0.80;99.90;;;;;;5091763;28;20051;-81
2022/01/21 05:05:54;;;;;;;13.23;2.53;;;0.90;99.90;;;;;;5092215;28;20124;-82
2022/01/21 05:08:31;;;;;;;12.77;2.93;;;0.90;99.90;;;;;;5093593;28;20028;-82
2022/01/21 05:10:57;;;;;;;4.27;2.30;;;0.90;99.90;;;;;;5093429;28;20020;-82
2022/01/21 05:13:26;;;;;;;14.00;3.07;;;0.80;99.90;;;;;;5092508;28;20074;-82
2022/01/21 05:16:10;;;;;;;9.57;2.77;;;0.80;99.90;;;;;;5093325;28;20024;-81
2022/01/21 05:18:35;;;;;;;10.47;3.00;;;0.80;99.90;;;;;;5091611;28;20043;-81
2022/01/21 05:21:01;;;;;;;13.07;3.20;;;0.90;99.90;;;;;;5092960;28;20024;-81
2022/01/21 05:23:27;;;;;;;7.80;2.80;;;0.80;99.90;;;;;;5092204;28;20089;-81
2022/01/21 05:25:53;;;;;;;10.17;2.13;;;0.80;99.90;;;;;;5091331;28;20052;-82
2022/01/21 05:28:19;;;;;;;9.00;2.97;;;0.80;99.90;;;;;;5093211;28;20449;-81
2022/01/21 05:30:44;;;;;;;11.47;3.07;;;0.80;99.90;;;;;;5091632;28;20480;-81
2022/01/21 05:33:10;;;;;;;8.90;3.30;;;0.80;99.90;;;;;;5093281;28;20020;-81
2022/01/21 05:35:36;;;;;;;6.17;2.40;;;0.70;99.90;;;;;;5092845;28;20032;-81
2022/01/21 05:38:01;;;;;;;7.60;3.03;;;0.70;99.90;;;;;;5092135;28;20078;-81
2022/01/21 05:40:27;;;;;;;9.43;2.87;;;0.70;99.90;;;;;;5084943;28;20020;-84
2022/01/21 05:42:53;;;;;;;7.30;2.43;;;0.70;99.90;;;;;;5091693;28;20024;-85
2022/01/21 05:48:03;;;;;;;8.17;2.77;;;0.60;99.90;;;;;;5097319;28;20042;-83
2022/01/21 05:50:29;;;;;;;7.63;2.67;;;0.60;99.90;;;;;;5095685;28;20031;-80
2022/01/21 05:52:56;;;;;;;5.53;2.67;;;0.60;99.90;;;;;;5096125;28;20024;-85
2022/01/21 05:55:22;;;;;;;8.93;3.10;;;0.60;99.90;;;;;;5096349;28;20115;-84
2022/01/21 05:57:48;;;;;;;10.47;3.03;;;0.60;99.90;;;;;;5095253;28;20039;-84
2022/01/21 06:00:14;;;;;;;9.50;3.00;;;0.60;99.90;;;;;;5095616;28;20028;-84
2022/01/21 06:02:40;;;;;;;9.53;3.10;;;0.60;99.90;;;;;;5078141;28;20016;-80
2022/01/21 06:05:07;;;;;;;8.57;3.23;;;0.60;99.90;;;;;;5095461;28;20035;-81
2022/01/21 06:07:33;;;;;;;10.10;2.93;;;0.60;99.90;;;;;;5095230;28;20024;-82
2022/01/21 06:09:59;;;;;;;12.63;2.87;;;0.60;99.90;;;;;;5095578;28;20027;-82
2022/01/21 06:12:25;;;;;;;11.27;3.90;;;0.60;99.90;;;;;;5095896;28;20028;-81
2022/01/21 06:14:51;;;;;;;8.70;2.87;;;0.60;99.90;;;;;;5095302;28;20472;-83
2022/01/21 06:17:16;;;;;;;7.47;3.03;;;0.60;99.90;;;;;;5095719;28;20115;-82
2022/01/21 06:19:44;;;;;;;10.30;3.33;;;0.70;99.90;;;;;;5094396;28;20081;-82
2022/01/21 06:22:10;;;;;;;9.07;2.97;;;0.70;99.90;;;;;;5095229;28;20032;-82
2022/01/21 06:24:35;;;;;;;11.50;3.07;;;0.70;99.90;;;;;;5094831;28;20048;-81
2022/01/21 06:27:03;;;;;;;10.97;3.03;;;0.80;99.90;;;;;;5095454;28;20048;-81
2022/01/21 06:29:29;;;;;;;14.63;3.83;;;0.80;99.90;;;;;;5095544;28;20035;-80
2022/01/21 06:31:55;;;;;;;8.90;2.97;;;0.80;99.90;;;;;;5095361;28;20028;-81
2022/01/21 06:34:21;;;;;;;10.63;3.10;;;0.80;99.90;;;;;;5095271;28;20024;-81
2022/01/21 06:36:46;;;;;;;7.30;2.83;;;0.80;99.90;;;;;;5094913;28;20461;-81
2022/01/21 06:39:12;;;;;;;12.03;3.13;;;0.80;99.90;;;;;;5095087;28;20050;-81
2022/01/21 06:41:38;;;;;;;8.77;3.67;;;0.90;99.90;;;;;;5093799;28;20054;-81
2022/01/21 06:44:04;;;;;;;8.37;2.60;;;0.90;99.90;;;;;;5095395;28;20028;-82
2022/01/21 06:46:30;;;;;;;7.97;2.87;;;0.90;99.90;;;;;;5094321;28;20027;-80
2022/01/21 06:48:56;;;;;;;10.17;3.30;;;0.80;99.90;;;;;;5094775;28;20032;-80
2022/01/21 06:51:22;;;;;;;8.53;3.27;;;0.80;99.90;;;;;;5095041;28;20035;-81
2022/01/21 06:53:47;;;;;;;7.43;3.13;;;0.90;99.90;;;;;;5095358;28;20035;-80
2022/01/21 06:56:13;;;;;;;16.57;3.50;;;0.90;99.90;;;;;;5094808;28;20047;-83
2022/01/21 06:58:39;;;;;;;14.53;3.50;;;0.90;99.90;;;;;;5094081;28;20129;-82
2022/01/21 07:01:05;;;;;;;9.07;3.73;;;0.90;99.90;;;;;;5094407;28;20369;-83
2022/01/21 07:03:30;;;;;;;8.70;3.27;;;0.90;99.90;;;;;;5094286;28;20024;-83
2022/01/21 07:05:56;;;;;;;7.23;3.40;;;0.90;99.90;;;;;;5095557;28;20410;-83
2022/01/21 07:08:22;;;;;;;14.43;3.50;;;0.90;99.90;;;;;;5095218;28;20059;-83
2022/01/21 07:10:48;;;;;;;8.17;3.80;;;1.00;99.90;;;;;;5094076;28;20020;-82
2022/01/21 07:13:14;;;;;;;9.07;3.60;;;1.00;99.90;;;;;;5095509;28;20016;-83
2022/01/21 07:15:40;;;;;;;10.43;3.67;;;1.00;99.90;;;;;;5094385;28;20047;-82
2022/01/21 07:18:05;;;;;;;11.63;3.73;;;1.00;99.90;;;;;;5094730;28;20077;-82
2022/01/21 07:20:31;;;;;;;11.70;3.67;;;1.00;99.90;;;;;;5093189;28;20116;-81
2022/01/21 07:22:57;;;;;;;10.10;3.40;;;1.00;99.90;;;;;;5093643;28;20461;-82
2022/01/21 07:25:22;;;;;;;9.97;3.40;;;1.00;99.90;;;;;;5093918;28;20536;-82
2022/01/21 07:27:48;;;;;;;11.13;3.63;;;1.00;99.90;;;;;;5093173;28;20148;-82
2022/01/21 07:30:15;;;;;;;10.00;3.73;;;1.10;99.90;;;;;;5093793;28;20024;-82
2022/01/21 07:32:42;;;;;;;8.67;3.30;;;1.10;99.90;;;;;;5091519;28;20173;-80
2022/01/21 07:35:09;;;;;;;9.40;3.70;;;1.10;99.90;;;;;;5093498;28;20133;-83
2022/01/21 07:37:36;;;;;;;15.87;4.30;;;1.10;99.90;;;;;;5092902;28;20028;-81
2022/01/21 07:40:03;;;;;;;11.57;3.73;;;1.20;99.90;;;;;;5088983;28;20020;-82
2022/01/21 07:42:29;;;;;;;14.20;3.97;;;1.10;99.90;;;;;;5092929;28;20109;-81
2022/01/21 07:44:55;;;;;;;9.37;3.23;;;1.20;99.90;;;;;;5093373;28;20090;-84
2022/01/21 07:47:21;;;;;;;13.03;3.33;;;1.20;99.90;;;;;;5093072;28;20032;-81
2022/01/21 07:49:47;;;;;;;6.83;3.47;;;1.30;99.90;;;;;;5092586;28;20028;-82
2022/01/21 07:52:13;;;;;;;9.93;3.23;;;1.30;99.90;;;;;;5094412;28;20020;-83
2022/01/21 07:54:38;;;;;;;9.73;3.67;;;1.30;99.90;;;;;;5092828;28;20034;-82
2022/01/21 07:57:04;;;;;;;11.17;3.20;;;1.30;99.90;;;;;;5093451;28;20024;-82
2022/01/21 07:59:30;;;;;;;10.03;3.13;;;1.30;99.90;;;;;;5093009;28;20035;-80
2022/01/21 08:01:57;;;;;;;13.90;4.20;;;1.40;99.90;;;;;;5093414;28;20071;-82
2022/01/21 08:04:23;;;;;;;12.47;3.90;;;1.30;99.90;;;;;;5093316;28;20063;-82
2022/01/21 08:06:48;;;;;;;8.73;3.83;;;1.30;99.90;;;;;;5091931;28;20218;-84
2022/01/21 08:09:14;;;;;;;9.50;3.73;;;1.40;99.90;;;;;;5093243;28;20028;-82
2022/01/21 08:11:40;;;;;;;8.30;3.60;;;1.40;99.90;;;;;;5086583;28;20024;-82
2022/01/21 08:14:06;;;;;;;8.43;4.00;;;1.40;99.90;;;;;;5094410;28;20032;-84
2022/01/21 08:16:35;;;;;;;8.43;3.53;;;1.40;99.90;;;;;;5092979;28;20024;-81
2022/01/21 08:19:03;;;;;;;11.97;4.10;;;1.40;99.90;;;;;;5092935;28;20032;-81
2022/01/21 08:21:28;;;;;;;7.27;3.53;;;1.30;99.90;;;;;;5092963;28;20020;-82
2022/01/21 08:23:55;;;;;;;11.10;4.17;;;1.30;99.90;;;;;;5095657;28;20414;-82
2022/01/21 08:26:25;;;;;;;9.57;4.03;;;1.30;99.90;;;;;;5096170;28;20063;-81
2022/01/21 08:28:52;;;;;;;9.83;3.77;;;1.40;99.90;;;;;;5095756;28;20118;-79
2022/01/21 08:31:18;;;;;;;10.40;3.33;;;1.30;99.90;;;;;;5114383;28;20038;-86
2022/01/21 08:33:44;;;;;;;8.63;3.37;;;1.30;99.90;;;;;;5095744;28;20027;-85
2022/01/21 08:36:11;;;;;;;9.33;3.57;;;1.30;99.90;;;;;;5114098;28;20085;-84
2022/01/21 08:38:38;;;;;;;9.80;3.80;;;1.30;99.90;;;;;;5095821;28;20081;-84
2022/01/21 08:41:03;;;;;;;8.70;3.40;;;1.30;99.90;;;;;;5095464;28;20051;-84
2022/01/21 08:43:29;;;;;;;11.67;3.80;;;1.30;99.90;;;;;;5095367;28;20042;-81
2022/01/21 08:45:55;;;;;;;12.03;3.43;;;1.40;99.90;;;;;;5095731;28;20031;-85
2022/01/21 08:48:21;;;;;;;8.03;3.47;;;1.40;99.90;;;;;;5095747;28;20050;-88
2022/01/21 08:50:46;;;;;;;14.10;3.47;;;1.50;99.90;;;;;;5095698;28;20016;-81
2022/01/21 08:55:57;;;;;;;10.80;3.80;;;1.60;99.90;;;;;;5114284;28;20058;-83
2022/01/21 08:58:24;;;;;;;14.10;4.00;;;1.70;99.90;;;;;;5096399;28;20028;-80
2022/01/21 09:00:50;;;;;;;10.23;3.70;;;1.70;99.90;;;;;;5094838;28;20016;-83
2022/01/21 09:03:16;;;;;;;10.23;3.43;;;1.80;99.90;;;;;;5095707;28;20034;-80
2022/01/21 09:05:48;;;;;;;11.70;3.73;;;1.80;99.90;;;;;;5112515;28;20028;-82
2022/01/21 09:08:23;;;;;;;8.40;2.77;;;1.90;99.90;;;;;;5095735;28;20081;-84
2022/01/21 09:10:49;;;;;;;10.67;2.93;;;1.90;99.90;;;;;;5087681;28;20567;-83
2022/01/21 09:13:15;;;;;;;9.80;3.60;;;1.90;99.90;;;;;;5113851;28;20026;-81
2022/01/21 09:15:41;;;;;;;15.00;3.67;;;1.90;99.90;;;;;;5113250;28;20091;-81
2022/01/21 09:18:07;;;;;;;12.53;3.83;;;2.00;99.90;;;;;;5114167;28;20106;-84
2022/01/21 09:20:34;;;;;;;11.63;3.50;;;2.10;99.90;;;;;;5116101;28;20055;-82
2022/01/21 09:23:00;;;;;;;8.83;3.20;;;2.10;99.90;;;;;;5099509;28;20533;-79
2022/01/21 09:25:26;;;;;;;10.30;3.67;;;2.10;99.90;;;;;;5117055;28;20036;-80
2022/01/21 09:27:52;;;;;;;11.07;3.10;;;2.20;99.90;;;;;;5116537;28;20460;-80
2022/01/21 09:30:18;;;;;;;7.07;2.87;;;2.20;99.90;;;;;;5099507;28;20034;-83
2022/01/21 09:32:45;;;;;;;7.23;3.03;;;2.30;99.90;;;;;;5114197;28;20016;-82
2022/01/21 09:35:11;;;;;;;6.67;2.80;;;2.30;99.90;;;;;;5117554;28;20023;-91
2022/01/21 09:37:37;;;;;;;13.00;3.40;;;2.40;99.90;;;;;;5098444;28;20114;-79
2022/01/21 09:40:05;;;;;;;8.00;2.97;;;2.40;99.90;;;;;;5098316;28;20072;-81
2022/01/21 09:42:35;;;;;;;7.83;3.07;;;2.40;99.90;;;;;;5098335;28;20033;-79
2022/01/21 09:45:08;;;;;;;11.63;3.17;;;2.50;99.90;;;;;;5099227;28;20383;-82
2022/01/21 09:47:44;;;;;;;10.80;3.17;;;2.50;99.90;;;;;;5098772;28;20468;-80
2022/01/21 09:50:20;;;;;;;16.73;3.60;;;2.60;99.90;;;;;;5096676;28;20097;-82
2022/01/21 09:52:47;;;;;;;49.30;16.27;;;2.60;99.90;;;;;;5078380;28;20114;-85
2022/01/21 09:55:13;;;;;;;38.33;14.97;;;2.60;99.90;;;;;;5087007;28;20479;-86
2022/01/21 09:57:41;;;;;;;27.43;13.63;;;2.70;99.90;;;;;;5098516;28;20030;-80
2022/01/21 10:00:08;;;;;;;12.10;4.83;;;2.80;99.90;;;;;;5117232;28;20552;-81
2022/01/21 10:02:35;;;;;;;11.00;4.67;;;2.80;99.90;;;;;;5116399;28;20038;-80
2022/01/21 10:05:03;;;;;;;10.30;3.87;;;2.80;99.90;;;;;;5099028;28;20547;-83
2022/01/21 10:07:30;;;;;;;13.07;3.70;;;2.80;99.90;;;;;;5099327;28;20057;-79
2022/01/21 10:09:57;;;;;;;9.03;3.70;;;2.80;99.90;;;;;;5098001;28;20043;-80
2022/01/21 10:12:24;;;;;;;10.60;3.20;;;2.90;99.90;;;;;;5099064;28;20023;-81
2022/01/21 10:14:50;;;;;;;9.20;3.57;;;2.90;99.90;;;;;;5116470;28;20020;-79
2022/01/21 10:17:16;;;;;;;10.80;3.83;;;2.90;99.90;;;;;;5117285;28;20035;-80
2022/01/21 10:19:48;;;;;;;10.37;4.17;;;2.90;99.90;;;;;;5098204;28;20024;-81
2022/01/21 10:22:17;;;;;;;12.43;4.15;;;2.90;99.90;;;;;;5098480;28;20073;-80
2022/01/21 10:24:53;;;;;;;9.00;3.60;;;3.00;99.90;;;;;;5078136;28;20071;-81
2022/01/21 10:27:36;;;;;;;11.67;3.27;;;3.00;99.90;;;;;;5096240;28;20040;-80
2022/01/21 10:30:17;;;;;;;12.27;4.83;;;3.00;99.90;;;;;;5078063;28;20036;-80
2022/01/21 10:32:43;;;;;;;8.53;3.43;;;2.90;99.90;;;;;;5061734;28;20020;-81
2022/01/21 10:35:21;;;;;;;8.60;3.20;;;2.90;99.90;;;;;;5079253;28;20035;-84
2022/01/21 10:37:48;;;;;;;8.60;3.07;;;3.00;99.90;;;;;;5077829;28;20059;-80
2022/01/21 10:40:15;;;;;;;9.73;3.00;;;3.10;99.90;;;;;;5077245;28;20020;-80
2022/01/21 10:42:41;;;;;;;9.07;3.00;;;3.10;99.90;;;;;;5078604;28;20024;-80
2022/01/21 10:45:08;;;;;;;8.70;2.90;;;3.10;99.90;;;;;;5078096;28;20027;-80
2022/01/21 10:47:40;;;;;;;12.53;3.10;;;3.20;99.90;;;;;;5077328;28;20073;-79
2022/01/21 10:50:14;;;;;;;7.90;3.10;;;3.20;99.90;;;;;;5096013;28;20081;-83
2022/01/21 10:52:45;;;;;;;12.03;3.00;;;3.20;99.90;;;;;;5060940;28;20085;-79
2022/01/21 10:55:28;;;;;;;8.50;3.17;;;3.20;99.90;;;;;;5095612;28;20016;-80
2022/01/21 10:58:12;;;;;;;7.27;3.13;;;3.20;99.90;;;;;;5095525;28;20028;-80
2022/01/21 11:01:03;;;;;;;9.43;3.10;;;3.30;99.90;;;;;;5094898;28;20021;-83
2022/01/21 11:03:30;;;;;;;8.90;3.33;;;3.40;99.90;;;;;;5093706;28;20035;-79
2022/01/21 11:06:15;;;;;;;10.90;3.47;;;3.40;99.90;;;;;;5077058;28;20034;-79
2022/01/21 11:08:40;;;;;;;8.03;2.73;;;3.40;99.90;;;;;;5074706;28;20393;-78
2022/01/21 11:11:06;;;;;;;10.60;3.33;;;3.40;99.90;;;;;;5088415;28;20115;-80
2022/01/21 11:13:34;;;;;;;8.20;2.83;;;3.40;99.90;;;;;;5076748;28;20035;-80
2022/01/21 11:16:11;;;;;;;12.07;2.93;;;3.50;99.90;;;;;;5095110;28;20021;-80
2022/01/21 11:18:56;;;;;;;8.83;3.10;;;3.60;99.90;;;;;;5094411;28;20035;-82
2022/01/21 11:21:24;;;;;;;8.93;3.37;;;3.60;99.90;;;;;;5076971;28;20115;-82
2022/01/21 11:23:49;;;;;;;11.67;2.90;;;3.70;99.90;;;;;;5095294;28;20263;-81
2022/01/21 11:26:18;;;;;;;6.40;2.60;;;3.70;99.90;;;;;;5097809;28;20111;-81
2022/01/21 11:28:49;;;;;;;7.10;2.30;;;3.70;99.90;;;;;;5115204;28;20035;-80
2022/01/21 11:31:16;;;;;;;6.77;2.40;;;3.70;99.90;;;;;;5097400;28;20016;-81
2022/01/21 11:33:42;;;;;;;7.10;2.53;;;3.70;99.90;;;;;;5097146;28;20023;-80
2022/01/21 11:36:09;;;;;;;9.17;2.87;;;3.70;99.90;;;;;;5096633;28;20085;-81
2022/01/21 11:38:37;;;;;;;7.67;2.67;;;3.70;99.90;;;;;;5096678;28;20032;-81
2022/01/21 11:41:05;;;;;;;9.03;2.83;;;3.80;99.90;;;;;;5096731;28;20161;-81
2022/01/21 11:43:33;;;;;;;11.47;3.37;;;3.90;99.90;;;;;;5113278;28;20469;-80
2022/01/21 11:51:00;;;;;;;9.77;3.00;;;4.20;99.90;;;;;;5115221;28;20019;-81
2022/01/21 11:53:49;;;;;;;10.80;2.70;;;4.30;99.90;;;;;;5096842;28;20285;-79
2022/01/21 11:56:46;;;;;;;7.90;2.80;;;4.30;99.90;;;;;;5095848;28;20148;-79
2022/01/21 12:01:52;;;;;;;7.97;2.13;;;4.30;99.90;;;;;;5113187;28;20296;-79
2022/01/21 12:04:42;;;;;;;6.30;2.33;;;4.40;99.90;;;;;;5095793;28;20088;-79
2022/01/21 12:07:36;;;;;;;11.43;2.30;;;4.40;99.90;;;;;;5096403;28;20034;-82
2022/01/21 12:10:18;;;;;;;11.80;2.40;;;4.40;99.90;;;;;;5090691;28;20125;-81
2022/01/21 12:13:02;;;;;;;9.18;2.30;;;4.40;99.90;;;;;;5079318;28;20030;-80
2022/01/21 12:21:41;;;;;;;11.93;2.47;;;4.40;99.90;;;;;;5094141;28;20020;-84
2022/01/21 12:24:09;;;;;;;12.57;2.80;;;4.40;99.90;;;;;;5092053;28;20126;-81
2022/01/21 12:26:52;;;;;;;8.93;2.67;;;4.40;99.90;;;;;;5092644;28;20028;-80
2022/01/21 12:29:22;;;;;;;10.63;3.00;;;4.40;99.90;;;;;;5074773;28;20068;-81
2022/01/21 12:32:40;;;;;;;10.17;2.53;;;4.40;99.90;;;;;;5089287;28;20430;-80
2022/01/21 12:34:57;;;;;;;8.10;2.33;;;4.40;99.90;;;;;;5078185;28;20111;-79
2022/01/21 12:37:26;;;;;;;8.70;2.67;;;4.40;99.90;;;;;;5091330;28;20265;-81
2022/01/21 12:39:52;;;;;;;6.53;2.47;;;4.40;99.90;;;;;;5090116;28;20028;-81
2022/01/21 12:42:21;;;;;;;10.00;2.03;;;4.40;99.90;;;;;;5092150;28;20028;-81
2022/01/21 12:44:48;;;;;;;8.47;2.57;;;4.50;99.90;;;;;;5091692;28;20073;-81
2022/01/21 12:47:41;;;;;;;9.63;2.50;;;4.60;99.90;;;;;;5092387;28;20051;-80
2022/01/21 12:50:19;;;;;;;4.97;2.27;;;4.50;99.70;;;;;;5086734;28;20036;-80
2022/01/21 12:58:03;;;;;;;9.63;2.50;;;4.40;99.90;;;;;;5093504;28;20034;-81
2022/01/21 13:00:29;;;;;;;6.23;2.03;;;4.40;99.90;;;;;;5093173;28;20024;-84
2022/01/21 13:03:00;;;;;;;8.93;2.10;;;4.30;99.90;;;;;;5091680;28;20024;-85
2022/01/21 13:05:37;;;;;;;8.60;2.58;;;4.30;99.90;;;;;;5092127;28;20028;-83
2022/01/21 13:08:37;;;;;;;8.83;2.20;;;4.40;99.90;;;;;;5089853;28;20059;-83
2022/01/21 13:11:22;;;;;;;8.23;2.13;;;4.50;99.90;;;;;;5090332;28;20041;-84
2022/01/21 13:14:00;;;;;;;8.37;2.17;;;4.60;99.90;;;;;;5091707;28;20031;-85
2022/01/21 13:16:31;;;;;;;6.13;2.40;;;4.60;99.90;;;;;;5092527;28;20025;-85
2022/01/21 13:19:05;;;;;;;9.03;2.20;;;4.70;99.90;;;;;;5089807;28;20558;-83
2022/01/21 13:21:34;;;;;;;4.83;1.90;;;5.00;99.30;;;;;;5088221;28;20017;-81
2022/01/21 13:24:02;;;;;;;8.23;2.20;;;5.10;99.20;;;;;;5093359;28;20038;-81
2022/01/21 13:26:37;;;;;;;9.63;2.10;;;5.40;98.90;;;;;;5094835;28;20448;-82
2022/01/21 13:29:10;;;;;;;7.30;2.33;;;5.50;98.20;;;;;;5095281;28;20035;-83
2022/01/21 13:31:52;;;;;;;8.77;2.73;;;5.50;98.70;;;;;;5093997;28;20023;-80
2022/01/21 13:34:20;;;;;;;;;;;5.40;98.20;;;;;;5092675;28;20036;-81
2022/01/21 13:36:54;;;;;;;6.33;2.43;;;5.30;98.20;;;;;;5112436;28;19907;-84
2022/01/21 13:39:35;;;;;;;12.03;2.10;;;5.20;98.50;;;;;;5093422;28;20027;-83
2022/01/21 13:42:11;;;;;;;12.67;2.00;;;5.10;98.90;;;;;;5092595;28;20380;-83
2022/01/21 13:44:41;;;;;;;9.87;2.47;;;4.90;99.20;;;;;;5093161;28;20425;-81
2022/01/21 13:47:23;;;;;;;10.93;2.07;;;4.80;99.40;;;;;;5094855;28;20020;-80
2022/01/21 13:49:50;;;;;;;7.83;2.30;;;4.70;99.30;;;;;;5094730;28;20537;-80
2022/01/21 13:52:15;;;;;;;8.27;2.10;;;4.70;99.80;;;;;;5113611;28;20077;-80
2022/01/21 13:54:47;;;;;;;6.47;2.03;;;4.70;99.70;;;;;;5094506;28;20023;-81
2022/01/21 13:57:13;;;;;;;8.32;2.00;;;4.70;99.80;;;;;;5095405;28;20032;-81
2022/01/21 13:59:43;;;;;;;6.27;2.20;;;4.70;99.70;;;;;;5094221;28;20027;-80
2022/01/21 14:02:19;;;;;;;10.37;2.17;;;4.70;99.90;;;;;;5112797;28;20077;-79
2022/01/21 14:05:02;;;;;;;7.30;1.97;;;4.60;99.90;;;;;;5096334;28;20027;-80
2022/01/21 14:07:33;;;;;;;10.07;2.30;;;4.70;99.90;;;;;;5098739;28;20035;-79
2022/01/21 14:10:02;;;;;;;8.43;2.00;;;4.70;99.90;;;;;;5093658;28;20104;-78